N2324K KSWF-KTEB
Flight info
| Callsign | N2324K |
|---|---|
| Flight time | N/A |
| Altitude | 5000 |
| Route | IGN/N0180F060 |
| Aircraft | BE36/L-BDFGLORY/S |
Departure
| Time | 2026-05-06 01:23 |
|---|---|
| Airport | New York Stewart International Airport (KSWF) |
Arrival
| Time | N/A |
|---|---|
| Airport | Teterboro Airport (KTEB) |
| Time | Latitude | Longitude | Altitude | Speed | Heading |
|---|---|---|---|---|---|
| 2026-05-06 01:13 | 41.50848 | -74.09608 | 508 ft | 0 kts | 351° |
| 2026-05-06 01:20 | 41.50847 | -74.09589 | 471 ft | 8 kts | 137° |
| 2026-05-06 01:20 | 41.50799 | -74.09527 | 470 ft | 11 kts | 90° |
| 2026-05-06 01:21 | 41.50817 | -74.09390 | 471 ft | 18 kts | 79° |
| 2026-05-06 01:21 | 41.50841 | -74.09223 | 470 ft | 17 kts | 82° |
| 2026-05-06 01:21 | 41.50785 | -74.09167 | 470 ft | 0 kts | 168° |
| 2026-05-06 01:22 | 41.50749 | -74.09155 | 469 ft | 15 kts | 167° |
| 2026-05-06 01:23 | 41.50674 | -74.09250 | 468 ft | 43 kts | 260° |
| 2026-05-06 01:23 | 41.50572 | -74.09969 | 627 ft | 99 kts | 258° |
| 2026-05-06 01:23 | 41.50489 | -74.10900 | 1148 ft | 103 kts | 262° |
| 2026-05-06 01:23 | 41.50445 | -74.11836 | 1731 ft | 100 kts | 255° |
| 2026-05-06 01:24 | 41.50515 | -74.12740 | 2393 ft | 97 kts | 259° |
| 2026-05-06 01:24 | 41.50636 | -74.13629 | 2935 ft | 103 kts | 261° |
| 2026-05-06 01:24 | 41.50718 | -74.14706 | 2954 ft | 127 kts | 261° |
| 2026-05-06 01:24 | 41.50762 | -74.15953 | 2950 ft | 140 kts | 261° |
| 2026-05-06 01:25 | 41.50781 | -74.17275 | 2952 ft | 146 kts | 260° |
| 2026-05-06 01:25 | 41.50796 | -74.18657 | 2965 ft | 152 kts | 260° |
| 2026-05-06 01:25 | 41.50818 | -74.20061 | 2962 ft | 147 kts | 261° |
| 2026-05-06 01:25 | 41.50855 | -74.21368 | 2958 ft | 136 kts | 261° |
| 2026-05-06 01:26 | 41.50896 | -74.22602 | 2962 ft | 130 kts | 260° |
| 2026-05-06 01:26 | 41.50940 | -74.23785 | 2954 ft | 126 kts | 260° |
| 2026-05-06 01:26 | 41.51180 | -74.24981 | 2953 ft | 159 kts | 291° |
| 2026-05-06 01:26 | 41.52253 | -74.25797 | 2976 ft | 200 kts | 343° |
| 2026-05-06 01:27 | 41.53542 | -74.25353 | 3438 ft | 192 kts | 32° |
| 2026-05-06 01:27 | 41.54298 | -74.23988 | 3910 ft | 180 kts | 70° |
| 2026-05-06 01:27 | 41.54808 | -74.22501 | 4399 ft | 174 kts | 69° |
| 2026-05-06 01:27 | 41.55303 | -74.21040 | 4866 ft | 172 kts | 70° |
| 2026-05-06 01:28 | 41.55801 | -74.19486 | 4947 ft | 192 kts | 70° |
| 2026-05-06 01:28 | 41.56332 | -74.17776 | 4952 ft | 205 kts | 70° |
| 2026-05-06 01:28 | 41.56884 | -74.15974 | 4954 ft | 213 kts | 70° |
| 2026-05-06 01:28 | 41.57450 | -74.14126 | 4953 ft | 217 kts | 71° |
| 2026-05-06 01:29 | 41.58032 | -74.12248 | 4943 ft | 218 kts | 70° |
| 2026-05-06 01:29 | 41.58605 | -74.10377 | 4952 ft | 217 kts | 70° |
| 2026-05-06 01:29 | 41.59186 | -74.08507 | 4952 ft | 219 kts | 70° |
| 2026-05-06 01:29 | 41.59773 | -74.06616 | 4940 ft | 221 kts | 70° |
| 2026-05-06 01:30 | 41.60364 | -74.04721 | 4958 ft | 222 kts | 70° |
| 2026-05-06 01:30 | 41.60958 | -74.02824 | 4959 ft | 221 kts | 70° |
| 2026-05-06 01:30 | 41.61559 | -74.00935 | 4948 ft | 221 kts | 71° |
| 2026-05-06 01:30 | 41.62174 | -73.99053 | 4945 ft | 222 kts | 70° |
| 2026-05-06 01:31 | 41.62783 | -73.97153 | 4949 ft | 223 kts | 70° |
| 2026-05-06 01:31 | 41.63385 | -73.95249 | 4950 ft | 221 kts | 70° |
| 2026-05-06 01:31 | 41.63981 | -73.93348 | 4953 ft | 223 kts | 70° |
| 2026-05-06 01:31 | 41.64581 | -73.91429 | 4951 ft | 224 kts | 70° |
| 2026-05-06 01:32 | 41.65072 | -73.89476 | 4944 ft | 219 kts | 90° |
| 2026-05-06 01:32 | 41.64729 | -73.87632 | 4944 ft | 196 kts | 135° |
| 2026-05-06 01:32 | 41.63708 | -73.86710 | 4943 ft | 168 kts | 180° |
| 2026-05-06 01:32 | 41.62572 | -73.86662 | 4952 ft | 162 kts | 190° |
| 2026-05-06 01:33 | 41.61451 | -73.86705 | 4955 ft | 161 kts | 191° |
| 2026-05-06 01:33 | 41.60346 | -73.86740 | 4958 ft | 161 kts | 191° |
| 2026-05-06 01:33 | 41.59228 | -73.86784 | 4960 ft | 161 kts | 191° |
| 2026-05-06 01:33 | 41.58106 | -73.86842 | 4960 ft | 162 kts | 191° |
| 2026-05-06 01:34 | 41.56988 | -73.86917 | 4960 ft | 159 kts | 192° |
| 2026-05-06 01:34 | 41.55887 | -73.87029 | 4958 ft | 159 kts | 193° |
| 2026-05-06 01:34 | 41.54786 | -73.87145 | 4959 ft | 159 kts | 193° |
| 2026-05-06 01:34 | 41.53675 | -73.87261 | 4957 ft | 160 kts | 193° |
| 2026-05-06 01:35 | 41.52628 | -73.87616 | 4959 ft | 153 kts | 217° |
| 2026-05-06 01:35 | 41.51776 | -73.88466 | 4958 ft | 153 kts | 217° |
| 2026-05-06 01:35 | 41.50827 | -73.89126 | 4961 ft | 156 kts | 206° |
| 2026-05-06 01:35 | 41.49775 | -73.89555 | 4959 ft | 160 kts | 201° |
| 2026-05-06 01:36 | 41.48679 | -73.89921 | 4950 ft | 163 kts | 200° |
| 2026-05-06 01:36 | 41.47573 | -73.90282 | 4951 ft | 163 kts | 200° |
| 2026-05-06 01:36 | 41.46476 | -73.90636 | 4954 ft | 162 kts | 201° |
| 2026-05-06 01:36 | 41.45375 | -73.90990 | 4951 ft | 163 kts | 201° |
| 2026-05-06 01:37 | 41.44286 | -73.91338 | 4952 ft | 162 kts | 200° |
| 2026-05-06 01:37 | 41.43200 | -73.91690 | 4951 ft | 159 kts | 201° |
| 2026-05-06 01:37 | 41.42137 | -73.92033 | 4952 ft | 157 kts | 200° |
| 2026-05-06 01:37 | 41.41078 | -73.92376 | 4954 ft | 157 kts | 201° |
| 2026-05-06 01:38 | 41.40012 | -73.92720 | 4960 ft | 158 kts | 201° |
| 2026-05-06 01:38 | 41.38934 | -73.93064 | 4970 ft | 160 kts | 200° |
| 2026-05-06 01:38 | 41.37846 | -73.93419 | 4965 ft | 161 kts | 201° |
| 2026-05-06 01:38 | 41.36763 | -73.93769 | 4968 ft | 160 kts | 201° |
| 2026-05-06 01:39 | 41.35683 | -73.94119 | 4968 ft | 160 kts | 201° |
| 2026-05-06 01:39 | 41.34604 | -73.94460 | 4965 ft | 159 kts | 200° |
| 2026-05-06 01:39 | 41.33529 | -73.94805 | 4968 ft | 158 kts | 200° |
| 2026-05-06 01:39 | 41.32454 | -73.95159 | 4965 ft | 160 kts | 201° |
| 2026-05-06 01:40 | 41.31372 | -73.95507 | 4968 ft | 159 kts | 201° |
| 2026-05-06 01:40 | 41.30297 | -73.95841 | 4977 ft | 159 kts | 201° |
| 2026-05-06 01:40 | 41.29220 | -73.96189 | 4971 ft | 159 kts | 201° |
| 2026-05-06 01:40 | 41.28154 | -73.96533 | 4971 ft | 157 kts | 201° |
| 2026-05-06 01:41 | 41.27095 | -73.96874 | 4968 ft | 157 kts | 201° |
| 2026-05-06 01:41 | 41.26040 | -73.97214 | 4968 ft | 158 kts | 201° |
| 2026-05-06 01:41 | 41.24953 | -73.97563 | 4969 ft | 159 kts | 202° |
| 2026-05-06 01:41 | 41.23889 | -73.97903 | 4969 ft | 159 kts | 202° |
| 2026-05-06 01:42 | 41.22809 | -73.98251 | 4929 ft | 159 kts | 202° |
| 2026-05-06 01:42 | 41.21744 | -73.98597 | 4682 ft | 156 kts | 202° |
| 2026-05-06 01:42 | 41.20703 | -73.98930 | 4432 ft | 152 kts | 201° |
| 2026-05-06 01:42 | 41.19693 | -73.99252 | 4169 ft | 147 kts | 201° |
| 2026-05-06 01:43 | 41.18698 | -73.99564 | 3934 ft | 147 kts | 201° |
| 2026-05-06 01:43 | 41.17704 | -73.99892 | 3689 ft | 146 kts | 201° |
| 2026-05-06 01:43 | 41.16720 | -74.00207 | 3442 ft | 145 kts | 200° |
| 2026-05-06 01:43 | 41.15746 | -74.00523 | 3219 ft | 143 kts | 200° |
| 2026-05-06 01:44 | 41.15110 | -74.00732 | 3061 ft | 142 kts | 198° |
| 2026-05-06 01:44 | 41.14152 | -74.01030 | 2810 ft | 141 kts | 198° |
| 2026-05-06 01:44 | 41.13206 | -74.01329 | 2562 ft | 138 kts | 198° |
| 2026-05-06 01:44 | 41.12274 | -74.01627 | 2316 ft | 137 kts | 197° |
| 2026-05-06 01:45 | 41.11343 | -74.01921 | 2082 ft | 137 kts | 197° |
| 2026-05-06 01:45 | 41.10447 | -74.02192 | 2074 ft | 128 kts | 197° |
| 2026-05-06 01:45 | 41.09598 | -74.02442 | 2069 ft | 122 kts | 196° |
| 2026-05-06 01:45 | 41.08776 | -74.02681 | 2069 ft | 120 kts | 196° |
| 2026-05-06 01:46 | 41.07956 | -74.02916 | 2059 ft | 120 kts | 196° |
| 2026-05-06 01:46 | 41.07147 | -74.03141 | 2073 ft | 119 kts | 196° |
| 2026-05-06 01:46 | 41.06325 | -74.03369 | 2074 ft | 122 kts | 196° |
| 2026-05-06 01:46 | 41.05491 | -74.03607 | 2067 ft | 122 kts | 196° |
| 2026-05-06 01:47 | 41.04678 | -74.03856 | 2072 ft | 119 kts | 198° |
| 2026-05-06 01:47 | 41.03880 | -74.04109 | 2078 ft | 118 kts | 197° |
| 2026-05-06 01:47 | 41.03079 | -74.04349 | 2074 ft | 118 kts | 196° |
| 2026-05-06 01:47 | 41.02266 | -74.04506 | 2077 ft | 119 kts | 193° |
| 2026-05-06 01:48 | 41.01427 | -74.04658 | 2075 ft | 123 kts | 192° |
| 2026-05-06 01:48 | 41.00569 | -74.04765 | 2072 ft | 123 kts | 191° |
| 2026-05-06 01:48 | 40.99714 | -74.04850 | 2072 ft | 123 kts | 191° |
| 2026-05-06 01:48 | 40.98863 | -74.04930 | 2080 ft | 123 kts | 191° |
| 2026-05-06 01:49 | 40.98006 | -74.04992 | 2079 ft | 124 kts | 189° |
| 2026-05-06 01:49 | 40.97158 | -74.05054 | 2077 ft | 119 kts | 189° |